Terminal Aerodrome Forecast
Issued by NWS

Current Version | Previous Version | Graphics & Text | Print | Product List | Glossary On
Versions: 1 2 3 4 5 6 7 8 9 10 11 12 13 14 15 16 17 18 19 20 21 22
787
FTUS41 KRLX 201739
TAFCKB
TAF
KCKB 201739Z 2018/2118 26011G20KT P6SM SCT060
     FM210000 23006KT P6SM SCT200
     FM210200 22003KT P6SM SCT150
     FM210700 00000KT P6SM SCT090
     FM211500 25007KT P6SM BKN070=

USA.gov is the U.S. government's official web portal to all federal, state and local government web resources and services.